sensor_id;sensor_type;location;lat;lon;timestamp;pressure;altitude;pressure_sealevel;temperature;humidity
10658;BME280;5377;43.276;26.930;2023-05-23T00:01:38;98709.19;;;16.69;100.00
10658;BME280;5377;43.276;26.930;2023-05-23T00:04:05;98707.88;;;16.71;100.00
10658;BME280;5377;43.276;26.930;2023-05-23T00:06:33;98706.78;;;16.72;100.00
10658;BME280;5377;43.276;26.930;2023-05-23T00:09:00;98705.25;;;16.60;100.00
10658;BME280;5377;43.276;26.930;2023-05-23T00:11:27;98713.91;;;16.62;100.00
10658;BME280;5377;43.276;26.930;2023-05-23T00:13:55;98708.00;;;16.65;100.00
10658;BME280;5377;43.276;26.930;2023-05-23T00:16:25;98707.06;;;16.71;100.00
10658;BME280;5377;43.276;26.930;2023-05-23T00:18:53;98719.31;;;16.78;100.00
10658;BME280;5377;43.276;26.930;2023-05-23T00:21:22;98707.34;;;16.74;100.00
10658;BME280;5377;43.276;26.930;2023-05-23T00:23:49;98709.69;;;16.66;100.00
10658;BME280;5377;43.276;26.930;2023-05-23T00:26:18;98713.59;;;16.58;100.00
10658;BME280;5377;43.276;26.930;2023-05-23T00:28:46;98721.03;;;16.46;100.00
10658;BME280;5377;43.276;26.930;2023-05-23T00:31:12;98719.97;;;16.47;100.00
10658;BME280;5377;43.276;26.930;2023-05-23T00:33:39;98712.97;;;16.51;100.00
10658;BME280;5377;43.276;26.930;2023-05-23T00:36:08;98717.44;;;16.40;100.00
10658;BME280;5377;43.276;26.930;2023-05-23T00:38:34;98718.25;;;16.41;100.00
10658;BME280;5377;43.276;26.930;2023-05-23T00:41:01;98713.44;;;16.43;100.00
10658;BME280;5377;43.276;26.930;2023-05-23T00:43:28;98700.41;;;16.40;100.00
10658;BME280;5377;43.276;26.930;2023-05-23T00:45:55;98715.00;;;16.39;100.00
10658;BME280;5377;43.276;26.930;2023-05-23T00:48:23;98710.91;;;16.36;100.00
10658;BME280;5377;43.276;26.930;2023-05-23T00:50:51;98713.88;;;16.35;100.00
10658;BME280;5377;43.276;26.930;2023-05-23T00:53:20;98712.97;;;16.29;100.00
10658;BME280;5377;43.276;26.930;2023-05-23T00:55:47;98712.56;;;16.20;100.00
10658;BME280;5377;43.276;26.930;2023-05-23T00:58:14;98704.41;;;16.15;100.00
10658;BME280;5377;43.276;26.930;2023-05-23T01:00:42;98706.34;;;16.20;100.00
10658;BME280;5377;43.276;26.930;2023-05-23T01:03:10;98714.78;;;16.23;100.00
10658;BME280;5377;43.276;26.930;2023-05-23T01:05:42;98695.16;;;16.11;100.00
10658;BME280;5377;43.276;26.930;2023-05-23T01:08:09;98718.47;;;16.17;100.00
10658;BME280;5377;43.276;26.930;2023-05-23T01:10:37;98716.53;;;16.13;100.00
10658;BME280;5377;43.276;26.930;2023-05-23T01:13:12;98707.53;;;16.07;100.00
10658;BME280;5377;43.276;26.930;2023-05-23T01:15:46;98718.22;;;16.19;100.00
10658;BME280;5377;43.276;26.930;2023-05-23T01:18:19;98711.63;;;16.10;100.00
10658;BME280;5377;43.276;26.930;2023-05-23T01:20:52;98715.56;;;16.02;100.00
10658;BME280;5377;43.276;26.930;2023-05-23T01:23:42;98705.59;;;16.03;100.00
10658;BME280;5377;43.276;26.930;2023-05-23T01:26:31;98706.22;;;15.93;100.00
10658;BME280;5377;43.276;26.930;2023-05-23T01:29:08;98719.41;;;15.89;100.00
10658;BME280;5377;43.276;26.930;2023-05-23T01:31:42;98703.88;;;15.97;100.00
10658;BME280;5377;43.276;26.930;2023-05-23T01:34:09;98710.00;;;15.92;100.00
10658;BME280;5377;43.276;26.930;2023-05-23T01:36:39;98705.41;;;15.93;100.00
10658;BME280;5377;43.276;26.930;2023-05-23T01:39:07;98713.50;;;15.93;100.00
10658;BME280;5377;43.276;26.930;2023-05-23T01:41:34;98710.00;;;15.92;100.00
10658;BME280;5377;43.276;26.930;2023-05-23T01:44:03;98712.81;;;15.97;100.00
10658;BME280;5377;43.276;26.930;2023-05-23T01:46:31;98709.84;;;15.99;100.00
10658;BME280;5377;43.276;26.930;2023-05-23T01:49:00;98713.38;;;15.99;100.00
10658;BME280;5377;43.276;26.930;2023-05-23T01:51:28;98706.16;;;16.05;100.00
10658;BME280;5377;43.276;26.930;2023-05-23T01:53:55;98705.34;;;16.04;100.00
10658;BME280;5377;43.276;26.930;2023-05-23T01:56:23;98710.00;;;16.09;100.00
10658;BME280;5377;43.276;26.930;2023-05-23T01:58:51;98698.88;;;16.05;100.00
10658;BME280;5377;43.276;26.930;2023-05-23T02:01:20;98706.28;;;16.15;100.00
10658;BME280;5377;43.276;26.930;2023-05-23T02:03:47;98716.22;;;16.09;100.00
10658;BME280;5377;43.276;26.930;2023-05-23T02:06:14;98716.03;;;16.16;100.00
10658;BME280;5377;43.276;26.930;2023-05-23T02:08:41;98715.78;;;16.17;100.00
10658;BME280;5377;43.276;26.930;2023-05-23T02:11:08;98716.09;;;16.21;100.00
10658;BME280;5377;43.276;26.930;2023-05-23T02:13:35;98713.22;;;16.28;100.00
10658;BME280;5377;43.276;26.930;2023-05-23T02:16:02;98719.63;;;16.21;100.00
10658;BME280;5377;43.276;26.930;2023-05-23T02:18:30;98722.22;;;16.33;100.00
10658;BME280;5377;43.276;26.930;2023-05-23T02:20:57;98723.88;;;16.34;100.00
10658;BME280;5377;43.276;26.930;2023-05-23T02:23:24;98712.53;;;16.37;100.00
10658;BME280;5377;43.276;26.930;2023-05-23T02:25:51;98712.53;;;16.37;100.00
10658;BME280;5377;43.276;26.930;2023-05-23T02:28:17;98720.72;;;16.42;100.00
10658;BME280;5377;43.276;26.930;2023-05-23T02:30:44;98722.59;;;16.42;100.00
10658;BME280;5377;43.276;26.930;2023-05-23T02:33:11;98708.47;;;16.35;100.00
10658;BME280;5377;43.276;26.930;2023-05-23T02:35:39;98724.38;;;16.31;100.00
10658;BME280;5377;43.276;26.930;2023-05-23T02:38:06;98721.72;;;16.36;100.00
10658;BME280;5377;43.276;26.930;2023-05-23T02:40:33;98720.72;;;16.42;100.00
10658;BME280;5377;43.276;26.930;2023-05-23T02:43:00;98726.44;;;16.46;100.00
10658;BME280;5377;43.276;26.930;2023-05-23T02:45:26;98719.91;;;16.42;100.00
10658;BME280;5377;43.276;26.930;2023-05-23T02:47:53;98723.66;;;16.41;100.00
10658;BME280;5377;43.276;26.930;2023-05-23T02:50:20;98726.94;;;16.43;100.00
10658;BME280;5377;43.276;26.930;2023-05-23T02:52:48;98727.44;;;16.40;100.00
10658;BME280;5377;43.276;26.930;2023-05-23T02:55:16;98723.66;;;16.41;100.00
10658;BME280;5377;43.276;26.930;2023-05-23T02:57:42;98730.53;;;16.48;100.00
10658;BME280;5377;43.276;26.930;2023-05-23T03:00:10;98730.84;;;16.52;100.00
10658;BME280;5377;43.276;26.930;2023-05-23T03:02:37;98727.88;;;16.53;100.00
10658;BME280;5377;43.276;26.930;2023-05-23T03:05:05;98729.00;;;16.58;100.00
10658;BME280;5377;43.276;26.930;2023-05-23T03:07:32;98733.84;;;16.56;100.00
10658;BME280;5377;43.276;26.930;2023-05-23T03:10:00;98724.84;;;16.67;100.00
10658;BME280;5377;43.276;26.930;2023-05-23T03:12:27;98729.31;;;16.61;100.00
10658;BME280;5377;43.276;26.930;2023-05-23T03:14:54;98727.44;;;16.62;100.00
10658;BME280;5377;43.276;26.930;2023-05-23T03:17:24;98741.13;;;16.72;100.00
10658;BME280;5377;43.276;26.930;2023-05-23T03:19:51;98731.69;;;16.74;100.00
10658;BME280;5377;43.276;26.930;2023-05-23T03:22:18;98736.03;;;16.75;100.00
10658;BME280;5377;43.276;26.930;2023-05-23T03:24:45;98737.34;;;16.73;100.00
10658;BME280;5377;43.276;26.930;2023-05-23T03:27:13;98736.59;;;16.77;100.00
10658;BME280;5377;43.276;26.930;2023-05-23T03:29:40;98729.56;;;16.76;100.00
10658;BME280;5377;43.276;26.930;2023-05-23T03:32:07;98736.09;;;16.80;100.00
10658;BME280;5377;43.276;26.930;2023-05-23T03:34:33;98735.78;;;16.77;100.00
10658;BME280;5377;43.276;26.930;2023-05-23T03:37:00;98734.09;;;16.71;100.00
10658;BME280;5377;43.276;26.930;2023-05-23T03:39:27;98744.22;;;16.80;100.00
10658;BME280;5377;43.276;26.930;2023-05-23T03:41:54;98747.47;;;16.82;100.00
10658;BME280;5377;43.276;26.930;2023-05-23T03:44:22;98726.34;;;16.79;100.00
10658;BME280;5377;43.276;26.930;2023-05-23T03:46:49;98738.59;;;16.87;100.00
10658;BME280;5377;43.276;26.930;2023-05-23T03:49:16;98735.84;;;16.82;100.00
10658;BME280;5377;43.276;26.930;2023-05-23T03:51:43;98746.09;;;16.80;100.00
10658;BME280;5377;43.276;26.930;2023-05-23T03:54:10;98750.53;;;16.91;100.00
10658;BME280;5377;43.276;26.930;2023-05-23T03:56:36;98753.06;;;16.98;100.00
10658;BME280;5377;43.276;26.930;2023-05-23T03:59:03;98751.56;;;17.07;100.00
10658;BME280;5377;43.276;26.930;2023-05-23T04:01:32;98755.06;;;17.07;100.00
10658;BME280;5377;43.276;26.930;2023-05-23T04:03:58;98757.84;;;17.12;100.00
10658;BME280;5377;43.276;26.930;2023-05-23T04:06:25;98744.03;;;17.14;100.00
10658;BME280;5377;43.276;26.930;2023-05-23T04:08:55;98749.03;;;17.27;100.00
10658;BME280;5377;43.276;26.930;2023-05-23T04:11:22;98755.91;;;17.35;100.00
10658;BME280;5377;43.276;26.930;2023-05-23T04:13:49;98765.72;;;17.41;100.00
10658;BME280;5377;43.276;26.930;2023-05-23T04:16:16;98759.66;;;17.34;100.00
10658;BME280;5377;43.276;26.930;2023-05-23T04:18:44;98755.78;;;17.52;100.00
10658;BME280;5377;43.276;26.930;2023-05-23T04:21:12;98752.53;;;17.50;100.00
10658;BME280;5377;43.276;26.930;2023-05-23T04:23:39;98751.66;;;17.44;100.00
10658;BME280;5377;43.276;26.930;2023-05-23T04:26:06;98735.75;;;17.53;100.00
10658;BME280;5377;43.276;26.930;2023-05-23T04:28:34;98737.91;;;17.51;100.00
10658;BME280;5377;43.276;26.930;2023-05-23T04:31:02;98745.00;;;17.57;100.00
10658;BME280;5377;43.276;26.930;2023-05-23T04:33:29;98750.41;;;17.57;100.00
10658;BME280;5377;43.276;26.930;2023-05-23T04:35:57;98762.03;;;17.52;100.00
10658;BME280;5377;43.276;26.930;2023-05-23T04:38:24;98754.75;;;17.58;100.00
10658;BME280;5377;43.276;26.930;2023-05-23T04:40:52;98752.16;;;17.68;100.00
10658;BME280;5377;43.276;26.930;2023-05-23T04:43:19;98754.69;;;17.74;100.00
10658;BME280;5377;43.276;26.930;2023-05-23T04:45:46;98745.31;;;17.92;100.00
10658;BME280;5377;43.276;26.930;2023-05-23T04:48:15;98758.31;;;17.90;100.00
10658;BME280;5377;43.276;26.930;2023-05-23T04:50:42;98757.56;;;18.00;100.00
10658;BME280;5377;43.276;26.930;2023-05-23T04:53:13;98750.63;;;18.14;100.00
10658;BME280;5377;43.276;26.930;2023-05-23T04:55:40;98753.63;;;18.18;100.00
10658;BME280;5377;43.276;26.930;2023-05-23T04:58:06;98756.66;;;18.26;100.00
10658;BME280;5377;43.276;26.930;2023-05-23T05:00:34;98747.78;;;18.36;100.00
10658;BME280;5377;43.276;26.930;2023-05-23T05:03:01;98750.47;;;18.36;100.00
10658;BME280;5377;43.276;26.930;2023-05-23T05:05:28;98750.75;;;18.34;100.00
10658;BME280;5377;43.276;26.930;2023-05-23T05:07:55;98752.94;;;18.37;100.00
10658;BME280;5377;43.276;26.930;2023-05-23T05:10:23;98761.97;;;18.53;100.00
10658;BME280;5377;43.276;26.930;2023-05-23T05:12:50;98757.13;;;18.60;100.00
10658;BME280;5377;43.276;26.930;2023-05-23T05:15:17;98751.78;;;18.70;100.00
10658;BME280;5377;43.276;26.930;2023-05-23T05:17:44;98755.66;;;18.85;100.00
10658;BME280;5377;43.276;26.930;2023-05-23T05:20:11;98745.91;;;18.99;100.00
10658;BME280;5377;43.276;26.930;2023-05-23T05:22:38;98749.78;;;19.13;100.00
10658;BME280;5377;43.276;26.930;2023-05-23T05:25:08;98748.44;;;19.26;100.00
10658;BME280;5377;43.276;26.930;2023-05-23T05:27:37;98748.44;;;19.31;100.00
10658;BME280;5377;43.276;26.930;2023-05-23T05:30:06;98758.81;;;19.49;100.00
10658;BME280;5377;43.276;26.930;2023-05-23T05:32:33;98763.13;;;19.40;100.00
10658;BME280;5377;43.276;26.930;2023-05-23T05:35:00;98756.91;;;19.45;100.00
10658;BME280;5377;43.276;26.930;2023-05-23T05:37:27;98752.59;;;19.54;100.00
10658;BME280;5377;43.276;26.930;2023-05-23T05:39:54;98753.41;;;19.59;100.00
10658;BME280;5377;43.276;26.930;2023-05-23T05:42:21;98749.88;;;19.69;100.00
10658;BME280;5377;43.276;26.930;2023-05-23T05:44:49;98761.28;;;19.76;100.00
10658;BME280;5377;43.276;26.930;2023-05-23T05:47:16;98758.88;;;19.80;96.93
10658;BME280;5377;43.276;26.930;2023-05-23T05:49:43;98757.50;;;19.87;97.64
10658;BME280;5377;43.276;26.930;2023-05-23T05:52:10;98759.13;;;19.99;97.62
10658;BME280;5377;43.276;26.930;2023-05-23T05:54:36;98755.03;;;20.21;96.37
10658;BME280;5377;43.276;26.930;2023-05-23T05:57:04;98756.09;;;20.31;92.52
10658;BME280;5377;43.276;26.930;2023-05-23T05:59:30;98762.06;;;20.53;92.00
10658;BME280;5377;43.276;26.930;2023-05-23T06:01:59;98754.09;;;20.72;91.43
10658;BME280;5377;43.276;26.930;2023-05-23T06:04:25;98758.88;;;21.00;88.80
10658;BME280;5377;43.276;26.930;2023-05-23T06:06:52;98747.09;;;21.20;85.97
10658;BME280;5377;43.276;26.930;2023-05-23T06:09:19;98750.59;;;21.31;85.13
10658;BME280;5377;43.276;26.930;2023-05-23T06:11:46;98749.94;;;21.44;84.44
10658;BME280;5377;43.276;26.930;2023-05-23T06:14:13;98754.16;;;21.21;83.62
10658;BME280;5377;43.276;26.930;2023-05-23T06:16:40;98746.75;;;21.32;83.77
10658;BME280;5377;43.276;26.930;2023-05-23T06:19:08;98756.97;;;21.55;82.66
10658;BME280;5377;43.276;26.930;2023-05-23T06:21:35;98751.06;;;21.38;81.12
10658;BME280;5377;43.276;26.930;2023-05-23T06:24:01;98759.53;;;21.75;80.53
10658;BME280;5377;43.276;26.930;2023-05-23T06:26:28;98752.00;;;21.62;79.59
10658;BME280;5377;43.276;26.930;2023-05-23T06:31:22;98749.56;;;21.95;78.72
10658;BME280;5377;43.276;26.930;2023-05-23T06:33:48;98754.78;;;22.25;77.93
10658;BME280;5377;43.276;26.930;2023-05-23T06:36:16;98746.31;;;21.93;77.92
10658;BME280;5377;43.276;26.930;2023-05-23T06:38:43;98742.88;;;22.11;77.27
10658;BME280;5377;43.276;26.930;2023-05-23T06:41:10;98741.72;;;22.22;76.48
10658;BME280;5377;43.276;26.930;2023-05-23T06:43:37;98746.19;;;22.37;75.82
10658;BME280;5377;43.276;26.930;2023-05-23T06:46:04;98741.31;;;22.34;73.81
10658;BME280;5377;43.276;26.930;2023-05-23T06:48:31;98743.41;;;22.13;75.22
10658;BME280;5377;43.276;26.930;2023-05-23T06:50:57;98737.63;;;22.20;73.87
10658;BME280;5377;43.276;26.930;2023-05-23T06:53:26;98733.75;;;22.26;73.90
10658;BME280;5377;43.276;26.930;2023-05-23T06:55:52;98734.50;;;22.31;71.99
10658;BME280;5377;43.276;26.930;2023-05-23T06:58:21;98734.56;;;22.26;72.09
10658;BME280;5377;43.276;26.930;2023-05-23T07:00:49;98725.63;;;22.21;72.46
10658;BME280;5377;43.276;26.930;2023-05-23T07:03:16;98728.28;;;21.97;73.72
10658;BME280;5377;43.276;26.930;2023-05-23T07:05:43;98732.59;;;22.03;71.76
10658;BME280;5377;43.276;26.930;2023-05-23T07:08:10;98731.00;;;21.97;69.77
10658;BME280;5377;43.276;26.930;2023-05-23T07:10:38;98732.28;;;21.75;71.37
10658;BME280;5377;43.276;26.930;2023-05-23T07:13:06;98731.53;;;21.65;72.38
10658;BME280;5377;43.276;26.930;2023-05-23T07:15:33;98729.59;;;21.70;73.25
10658;BME280;5377;43.276;26.930;2023-05-23T07:18:00;98728.16;;;21.78;73.17
10658;BME280;5377;43.276;26.930;2023-05-23T07:20:27;98733.38;;;21.74;71.67
10658;BME280;5377;43.276;26.930;2023-05-23T07:22:54;98731.78;;;21.68;71.50
10658;BME280;5377;43.276;26.930;2023-05-23T07:25:21;98727.34;;;21.77;72.96
10658;BME280;5377;43.276;26.930;2023-05-23T07:27:50;98732.72;;;21.88;74.01
10658;BME280;5377;43.276;26.930;2023-05-23T07:30:18;98727.13;;;22.03;72.49
10658;BME280;5377;43.276;26.930;2023-05-23T07:32:46;98725.81;;;22.29;72.16
10658;BME280;5377;43.276;26.930;2023-05-23T07:35:13;98727.63;;;22.63;72.41
10658;BME280;5377;43.276;26.930;2023-05-23T07:37:40;98730.28;;;22.68;73.36
10658;BME280;5377;43.276;26.930;2023-05-23T07:40:07;98737.38;;;22.93;71.91
10658;BME280;5377;43.276;26.930;2023-05-23T07:42:34;98735.59;;;22.78;70.17
10658;BME280;5377;43.276;26.930;2023-05-23T07:45:03;98723.13;;;22.72;69.57
10658;BME280;5377;43.276;26.930;2023-05-23T07:47:30;98734.13;;;22.67;69.02
10658;BME280;5377;43.276;26.930;2023-05-23T07:49:57;98734.84;;;22.49;68.12
10658;BME280;5377;43.276;26.930;2023-05-23T07:52:28;98740.53;;;22.57;69.43
10658;BME280;5377;43.276;26.930;2023-05-23T07:54:56;98736.38;;;22.60;69.53
10658;BME280;5377;43.276;26.930;2023-05-23T07:57:23;98739.41;;;22.82;69.15
10658;BME280;5377;43.276;26.930;2023-05-23T07:59:50;98739.94;;;22.84;69.21
10658;BME280;5377;43.276;26.930;2023-05-23T08:02:19;98728.75;;;23.05;69.68
10658;BME280;5377;43.276;26.930;2023-05-23T08:04:46;98733.41;;;23.23;68.50
10658;BME280;5377;43.276;26.930;2023-05-23T08:07:14;98738.13;;;23.55;67.02
10658;BME280;5377;43.276;26.930;2023-05-23T08:09:41;98723.59;;;23.92;65.04
10658;BME280;5377;43.276;26.930;2023-05-23T08:12:08;98723.03;;;24.09;63.74
10658;BME280;5377;43.276;26.930;2023-05-23T08:14:35;98724.66;;;24.29;63.37
10658;BME280;5377;43.276;26.930;2023-05-23T08:17:02;98717.38;;;24.05;59.75
10658;BME280;5377;43.276;26.930;2023-05-23T08:19:30;98708.06;;;23.74;60.43
10658;BME280;5377;43.276;26.930;2023-05-23T08:21:57;98718.78;;;23.70;60.32
10658;BME280;5377;43.276;26.930;2023-05-23T08:24:24;98713.50;;;23.60;61.89
10658;BME280;5377;43.276;26.930;2023-05-23T08:26:51;98711.84;;;23.40;60.97
10658;BME280;5377;43.276;26.930;2023-05-23T08:29:18;98712.00;;;23.30;60.53
10658;BME280;5377;43.276;26.930;2023-05-23T08:31:44;98708.59;;;23.19;62.07
10658;BME280;5377;43.276;26.930;2023-05-23T08:34:11;98712.16;;;23.90;60.39
10658;BME280;5377;43.276;26.930;2023-05-23T08:36:40;98698.22;;;24.05;58.75
10658;BME280;5377;43.276;26.930;2023-05-23T08:39:07;98673.78;;;24.22;57.91
10658;BME280;5377;43.276;26.930;2023-05-23T08:41:34;98695.34;;;24.70;57.89
10658;BME280;5377;43.276;26.930;2023-05-23T08:44:01;98697.97;;;25.03;57.18
10658;BME280;5377;43.276;26.930;2023-05-23T08:46:28;98693.19;;;24.81;56.07
10658;BME280;5377;43.276;26.930;2023-05-23T08:48:57;98700.47;;;24.85;56.31
10658;BME280;5377;43.276;26.930;2023-05-23T08:51:25;98694.81;;;25.32;56.55
10658;BME280;5377;43.276;26.930;2023-05-23T08:53:54;98695.22;;;26.37;54.45
10658;BME280;5377;43.276;26.930;2023-05-23T08:56:22;98694.00;;;27.17;53.61
10658;BME280;5377;43.276;26.930;2023-05-23T08:58:50;98702.25;;;27.17;51.06
10658;BME280;5377;43.276;26.930;2023-05-23T09:01:19;98688.81;;;27.76;50.94
10658;BME280;5377;43.276;26.930;2023-05-23T09:03:47;98687.31;;;27.87;49.17
10658;BME280;5377;43.276;26.930;2023-05-23T09:06:15;98698.69;;;27.08;48.69
10658;BME280;5377;43.276;26.930;2023-05-23T09:08:43;98699.06;;;26.76;49.69
10658;BME280;5377;43.276;26.930;2023-05-23T09:11:12;98697.13;;;26.85;51.03
10658;BME280;5377;43.276;26.930;2023-05-23T09:13:40;98692.03;;;26.52;50.66
10658;BME280;5377;43.276;26.930;2023-05-23T09:16:09;98690.09;;;26.22;51.15
10658;BME280;5377;43.276;26.930;2023-05-23T09:18:38;98688.41;;;26.03;52.03
10658;BME280;5377;43.276;26.930;2023-05-23T09:21:07;98679.88;;;25.83;51.40
10658;BME280;5377;43.276;26.930;2023-05-23T09:23:34;98688.44;;;25.81;52.62
10658;BME280;5377;43.276;26.930;2023-05-23T09:26:02;98693.94;;;25.81;52.43
10658;BME280;5377;43.276;26.930;2023-05-23T09:28:31;98690.94;;;25.69;53.55
10658;BME280;5377;43.276;26.930;2023-05-23T09:30:58;98693.19;;;25.31;54.00
10658;BME280;5377;43.276;26.930;2023-05-23T09:33:34;98692.88;;;25.32;53.09
10658;BME280;5377;43.276;26.930;2023-05-23T09:36:03;98684.59;;;25.24;52.78
10658;BME280;5377;43.276;26.930;2023-05-23T09:38:30;98689.53;;;25.58;53.82
10658;BME280;5377;43.276;26.930;2023-05-23T09:40:58;98694.38;;;25.74;53.01
10658;BME280;5377;43.276;26.930;2023-05-23T09:43:25;98693.44;;;25.65;51.18
10658;BME280;5377;43.276;26.930;2023-05-23T09:45:54;98689.03;;;25.33;51.54
10658;BME280;5377;43.276;26.930;2023-05-23T09:48:27;98691.44;;;24.85;55.33
10658;BME280;5377;43.276;26.930;2023-05-23T09:50:55;98695.44;;;24.79;55.44
10658;BME280;5377;43.276;26.930;2023-05-23T09:53:22;98691.94;;;24.87;54.85
10658;BME280;5377;43.276;26.930;2023-05-23T09:55:50;98692.22;;;24.63;55.00
10658;BME280;5377;43.276;26.930;2023-05-23T09:58:19;98691.09;;;24.37;55.41
10658;BME280;5377;43.276;26.930;2023-05-23T10:00:48;98695.69;;;24.22;54.61
10658;BME280;5377;43.276;26.930;2023-05-23T10:03:21;98692.53;;;24.02;55.24
10658;BME280;5377;43.276;26.930;2023-05-23T10:05:52;98679.41;;;23.85;57.02
10658;BME280;5377;43.276;26.930;2023-05-23T10:08:24;98694.09;;;23.89;57.36
10658;BME280;5377;43.276;26.930;2023-05-23T10:14:15;98683.22;;;24.16;58.72
10658;BME280;5377;43.276;26.930;2023-05-23T10:16:48;98681.44;;;24.53;56.65
10658;BME280;5377;43.276;26.930;2023-05-23T10:19:24;98672.47;;;24.88;55.42
10658;BME280;5377;43.276;26.930;2023-05-23T10:21:58;98675.03;;;24.99;54.29
10658;BME280;5377;43.276;26.930;2023-05-23T10:24:25;98684.25;;;24.89;56.36
10658;BME280;5377;43.276;26.930;2023-05-23T10:26:53;98690.16;;;24.55;56.94
10658;BME280;5377;43.276;26.930;2023-05-23T10:29:20;98692.81;;;24.33;58.96
10658;BME280;5377;43.276;26.930;2023-05-23T10:31:48;98690.13;;;24.14;60.80
10658;BME280;5377;43.276;26.930;2023-05-23T10:34:24;98696.09;;;23.70;65.61
10658;BME280;5377;43.276;26.930;2023-05-23T10:36:59;98693.53;;;23.59;69.52
10658;BME280;5377;43.276;26.930;2023-05-23T10:39:39;98652.84;;;23.01;72.97
10658;BME280;5377;43.276;26.930;2023-05-23T10:42:14;98696.19;;;23.08;75.86
10658;BME280;5377;43.276;26.930;2023-05-23T10:44:42;98698.97;;;22.84;80.46
10658;BME280;5377;43.276;26.930;2023-05-23T10:47:09;98696.13;;;22.70;80.67
10658;BME280;5377;43.276;26.930;2023-05-23T10:49:39;98698.69;;;22.62;82.99
10658;BME280;5377;43.276;26.930;2023-05-23T10:52:08;98703.91;;;22.34;90.42
10658;BME280;5377;43.276;26.930;2023-05-23T10:54:35;98720.44;;;21.56;100.00
10658;BME280;5377;43.276;26.930;2023-05-23T10:57:03;98709.75;;;21.65;100.00
10658;BME280;5377;43.276;26.930;2023-05-23T10:59:30;98707.28;;;21.29;100.00
10658;BME280;5377;43.276;26.930;2023-05-23T11:01:58;98709.41;;;20.88;100.00
10658;BME280;5377;43.276;26.930;2023-05-23T11:04:26;98699.41;;;20.68;100.00
10658;BME280;5377;43.276;26.930;2023-05-23T11:06:55;98709.16;;;20.84;100.00
10658;BME280;5377;43.276;26.930;2023-05-23T11:09:22;98703.34;;;21.01;100.00
10658;BME280;5377;43.276;26.930;2023-05-23T11:11:58;98705.13;;;21.26;100.00
10658;BME280;5377;43.276;26.930;2023-05-23T11:14:51;98701.19;;;21.42;100.00
10658;BME280;5377;43.276;26.930;2023-05-23T11:17:30;98691.56;;;21.84;100.00
10658;BME280;5377;43.276;26.930;2023-05-23T11:19:59;98693.84;;;22.06;100.00
10658;BME280;5377;43.276;26.930;2023-05-23T11:22:32;98700.66;;;22.32;100.00
10658;BME280;5377;43.276;26.930;2023-05-23T11:25:00;98697.53;;;22.68;100.00
10658;BME280;5377;43.276;26.930;2023-05-23T11:27:28;98700.69;;;22.75;100.00
10658;BME280;5377;43.276;26.930;2023-05-23T11:29:59;98692.22;;;23.00;98.76
10658;BME280;5377;43.276;26.930;2023-05-23T11:32:30;98689.16;;;23.21;95.32
10658;BME280;5377;43.276;26.930;2023-05-23T11:35:00;98692.19;;;23.19;94.54
10658;BME280;5377;43.276;26.930;2023-05-23T11:37:27;98715.09;;;23.23;90.00
10658;BME280;5377;43.276;26.930;2023-05-23T11:39:56;98726.63;;;23.01;89.96
10658;BME280;5377;43.276;26.930;2023-05-23T11:42:23;98726.56;;;22.59;92.19
10658;BME280;5377;43.276;26.930;2023-05-23T11:44:50;98716.56;;;21.96;94.50
10658;BME280;5377;43.276;26.930;2023-05-23T11:47:18;98718.56;;;21.86;99.24
10658;BME280;5377;43.276;26.930;2023-05-23T11:49:45;98732.13;;;21.12;100.00
10658;BME280;5377;43.276;26.930;2023-05-23T11:52:13;98727.81;;;21.06;100.00
10658;BME280;5377;43.276;26.930;2023-05-23T11:54:40;98728.50;;;20.73;100.00
10658;BME280;5377;43.276;26.930;2023-05-23T11:57:09;98737.25;;;20.65;100.00
10658;BME280;5377;43.276;26.930;2023-05-23T11:59:38;98740.22;;;20.73;100.00
10658;BME280;5377;43.276;26.930;2023-05-23T12:02:05;98747.53;;;20.88;100.00
10658;BME280;5377;43.276;26.930;2023-05-23T12:04:33;98735.03;;;20.82;100.00
10658;BME280;5377;43.276;26.930;2023-05-23T12:07:04;98737.06;;;21.05;100.00
10658;BME280;5377;43.276;26.930;2023-05-23T12:09:31;98732.84;;;21.33;100.00
10658;BME280;5377;43.276;26.930;2023-05-23T12:12:07;98738.25;;;21.77;100.00
10658;BME280;5377;43.276;26.930;2023-05-23T12:14:35;98736.50;;;21.92;100.00
10658;BME280;5377;43.276;26.930;2023-05-23T12:17:09;98725.66;;;21.82;100.00
10658;BME280;5377;43.276;26.930;2023-05-23T12:19:36;98724.03;;;21.86;100.00
10658;BME280;5377;43.276;26.930;2023-05-23T12:22:05;98733.03;;;21.86;100.00
10658;BME280;5377;43.276;26.930;2023-05-23T12:24:32;98739.09;;;21.73;100.00
10658;BME280;5377;43.276;26.930;2023-05-23T12:27:01;98739.00;;;21.88;100.00
10658;BME280;5377;43.276;26.930;2023-05-23T12:29:29;98732.06;;;22.01;100.00
10658;BME280;5377;43.276;26.930;2023-05-23T12:31:59;98723.06;;;22.00;100.00
10658;BME280;5377;43.276;26.930;2023-05-23T12:34:26;98718.94;;;22.03;100.00
10658;BME280;5377;43.276;26.930;2023-05-23T12:36:57;98715.09;;;22.09;100.00
10658;BME280;5377;43.276;26.930;2023-05-23T12:39:24;98712.88;;;22.11;100.00
10658;BME280;5377;43.276;26.930;2023-05-23T12:41:52;98705.97;;;22.19;100.00
10658;BME280;5377;43.276;26.930;2023-05-23T12:44:20;98714.75;;;22.16;100.00
10658;BME280;5377;43.276;26.930;2023-05-23T12:46:47;98721.53;;;22.18;100.00
10658;BME280;5377;43.276;26.930;2023-05-23T12:49:16;98717.19;;;21.88;100.00
10658;BME280;5377;43.276;26.930;2023-05-23T12:51:42;98721.38;;;21.75;100.00
10658;BME280;5377;43.276;26.930;2023-05-23T12:54:09;98711.09;;;21.67;100.00
10658;BME280;5377;43.276;26.930;2023-05-23T12:56:36;98706.78;;;21.61;100.00
10658;BME280;5377;43.276;26.930;2023-05-23T12:59:03;98712.84;;;21.87;100.00
10658;BME280;5377;43.276;26.930;2023-05-23T13:01:30;98707.69;;;21.80;100.00
10658;BME280;5377;43.276;26.930;2023-05-23T13:03:58;98705.59;;;21.72;100.00
10658;BME280;5377;43.276;26.930;2023-05-23T13:06:27;98709.22;;;21.63;99.12